sensor_id;sensor_type;location;lat;lon;timestamp;P1;durP1;ratioP1;P2;durP2;ratioP2
34902;SDS011;21114;44.840;0.214;2023-12-29T00:01:29;7.40;;;6.68;;
34902;SDS011;21114;44.840;0.214;2023-12-29T00:04:43;8.85;;;7.95;;
34902;SDS011;21114;44.840;0.214;2023-12-29T00:07:10;8.77;;;6.57;;
34902;SDS011;21114;44.840;0.214;2023-12-29T00:09:36;9.48;;;6.82;;
34902;SDS011;21114;44.840;0.214;2023-12-29T00:12:06;9.13;;;6.75;;
34902;SDS011;21114;44.840;0.214;2023-12-29T00:14:32;10.18;;;7.28;;
34902;SDS011;21114;44.840;0.214;2023-12-29T00:17:30;8.70;;;6.90;;
34902;SDS011;21114;44.840;0.214;2023-12-29T00:19:57;8.95;;;6.90;;
34902;SDS011;21114;44.840;0.214;2023-12-29T00:22:23;8.27;;;7.22;;
34902;SDS011;21114;44.840;0.214;2023-12-29T00:24:50;8.95;;;7.18;;
34902;SDS011;21114;44.840;0.214;2023-12-29T00:27:16;9.30;;;6.90;;
34902;SDS011;21114;44.840;0.214;2023-12-29T00:29:42;8.45;;;6.65;;
34902;SDS011;21114;44.840;0.214;2023-12-29T00:32:08;10.85;;;8.15;;
34902;SDS011;21114;44.840;0.214;2023-12-29T00:34:34;11.80;;;8.68;;
34902;SDS011;21114;44.840;0.214;2023-12-29T00:37:02;12.57;;;9.85;;
34902;SDS011;21114;44.840;0.214;2023-12-29T00:39:28;14.70;;;10.98;;
34902;SDS011;21114;44.840;0.214;2023-12-29T00:41:55;14.88;;;11.52;;
34902;SDS011;21114;44.840;0.214;2023-12-29T00:44:22;17.95;;;13.23;;
34902;SDS011;21114;44.840;0.214;2023-12-29T00:46:48;11.88;;;10.65;;
34902;SDS011;21114;44.840;0.214;2023-12-29T00:49:14;12.55;;;11.15;;
34902;SDS011;21114;44.840;0.214;2023-12-29T00:52:29;12.95;;;10.68;;
34902;SDS011;21114;44.840;0.214;2023-12-29T00:54:55;11.35;;;9.57;;
34902;SDS011;21114;44.840;0.214;2023-12-29T00:57:21;13.43;;;9.85;;
34902;SDS011;21114;44.840;0.214;2023-12-29T00:59:47;10.35;;;9.27;;
34902;SDS011;21114;44.840;0.214;2023-12-29T01:02:13;11.63;;;9.25;;
34902;SDS011;21114;44.840;0.214;2023-12-29T01:04:39;11.48;;;9.07;;
34902;SDS011;21114;44.840;0.214;2023-12-29T01:07:05;13.93;;;9.68;;
34902;SDS011;21114;44.840;0.214;2023-12-29T01:09:31;11.30;;;8.73;;
34902;SDS011;21114;44.840;0.214;2023-12-29T01:11:57;12.20;;;9.02;;
34902;SDS011;21114;44.840;0.214;2023-12-29T01:14:24;9.02;;;8.13;;
34902;SDS011;21114;44.840;0.214;2023-12-29T01:16:50;8.57;;;7.60;;
34902;SDS011;21114;44.840;0.214;2023-12-29T01:19:16;14.38;;;9.05;;
34902;SDS011;21114;44.840;0.214;2023-12-29T01:21:42;10.05;;;8.00;;
34902;SDS011;21114;44.840;0.214;2023-12-29T01:24:08;10.32;;;7.53;;
34902;SDS011;21114;44.840;0.214;2023-12-29T01:26:37;8.43;;;7.60;;
34902;SDS011;21114;44.840;0.214;2023-12-29T01:29:04;7.68;;;6.90;;
34902;SDS011;21114;44.840;0.214;2023-12-29T01:31:51;10.75;;;8.55;;
34902;SDS011;21114;44.840;0.214;2023-12-29T01:34:17;7.75;;;6.95;;
34902;SDS011;21114;44.840;0.214;2023-12-29T01:36:43;10.00;;;8.00;;
34902;SDS011;21114;44.840;0.214;2023-12-29T01:39:09;9.57;;;7.68;;
34902;SDS011;21114;44.840;0.214;2023-12-29T01:41:35;9.75;;;8.65;;
34902;SDS011;21114;44.840;0.214;2023-12-29T01:46:31;11.57;;;9.20;;
34902;SDS011;21114;44.840;0.214;2023-12-29T01:49:48;8.88;;;7.95;;
34902;SDS011;21114;44.840;0.214;2023-12-29T01:53:03;8.63;;;7.82;;
34902;SDS011;21114;44.840;0.214;2023-12-29T01:55:29;11.43;;;8.35;;
34902;SDS011;21114;44.840;0.214;2023-12-29T01:57:56;9.05;;;7.45;;
34902;SDS011;21114;44.840;0.214;2023-12-29T02:00:22;8.90;;;7.60;;
34902;SDS011;21114;44.840;0.214;2023-12-29T02:02:48;11.68;;;9.25;;
34902;SDS011;21114;44.840;0.214;2023-12-29T02:05:14;7.82;;;7.07;;
34902;SDS011;21114;44.840;0.214;2023-12-29T02:07:41;9.38;;;7.10;;
34902;SDS011;21114;44.840;0.214;2023-12-29T02:10:56;9.98;;;8.35;;
34902;SDS011;21114;44.840;0.214;2023-12-29T02:14:10;8.32;;;7.50;;
34902;SDS011;21114;44.840;0.214;2023-12-29T02:19:52;12.55;;;7.82;;
34902;SDS011;21114;44.840;0.214;2023-12-29T02:22:49;7.57;;;6.88;;
34902;SDS011;21114;44.840;0.214;2023-12-29T02:25:15;9.40;;;8.45;;
34902;SDS011;21114;44.840;0.214;2023-12-29T02:31:07;8.07;;;7.30;;
34902;SDS011;21114;44.840;0.214;2023-12-29T02:34:23;7.80;;;6.78;;
34902;SDS011;21114;44.840;0.214;2023-12-29T02:36:49;8.82;;;7.25;;
34902;SDS011;21114;44.840;0.214;2023-12-29T02:39:57;10.68;;;7.32;;
34902;SDS011;21114;44.840;0.214;2023-12-29T02:42:54;9.32;;;8.43;;
34902;SDS011;21114;44.840;0.214;2023-12-29T02:45:21;10.13;;;8.48;;
34902;SDS011;21114;44.840;0.214;2023-12-29T02:47:47;10.20;;;9.20;;
34902;SDS011;21114;44.840;0.214;2023-12-29T02:50:52;14.32;;;9.38;;
34902;SDS011;21114;44.840;0.214;2023-12-29T02:53:18;12.32;;;10.43;;
34902;SDS011;21114;44.840;0.214;2023-12-29T02:55:44;10.73;;;9.32;;
34902;SDS011;21114;44.840;0.214;2023-12-29T02:58:10;11.75;;;9.35;;
34902;SDS011;21114;44.840;0.214;2023-12-29T03:00:36;12.52;;;10.55;;
34902;SDS011;21114;44.840;0.214;2023-12-29T03:03:02;10.80;;;9.68;;
34902;SDS011;21114;44.840;0.214;2023-12-29T03:05:28;10.77;;;9.15;;
34902;SDS011;21114;44.840;0.214;2023-12-29T03:07:54;11.90;;;9.77;;
34902;SDS011;21114;44.840;0.214;2023-12-29T03:10:21;10.25;;;9.18;;
34902;SDS011;21114;44.840;0.214;2023-12-29T03:12:47;12.07;;;9.85;;
34902;SDS011;21114;44.840;0.214;2023-12-29T03:15:13;9.48;;;8.50;;
34902;SDS011;21114;44.840;0.214;2023-12-29T03:17:39;10.60;;;9.50;;
34902;SDS011;21114;44.840;0.214;2023-12-29T03:20:05;9.15;;;8.18;;
34902;SDS011;21114;44.840;0.214;2023-12-29T03:22:57;11.98;;;9.88;;
34902;SDS011;21114;44.840;0.214;2023-12-29T03:25:23;9.32;;;8.35;;
34902;SDS011;21114;44.840;0.214;2023-12-29T03:27:49;12.48;;;10.23;;
34902;SDS011;21114;44.840;0.214;2023-12-29T03:30:15;12.85;;;10.25;;
34902;SDS011;21114;44.840;0.214;2023-12-29T03:32:41;11.35;;;8.88;;
34902;SDS011;21114;44.840;0.214;2023-12-29T03:35:07;10.85;;;9.02;;
34902;SDS011;21114;44.840;0.214;2023-12-29T03:37:33;10.00;;;8.60;;
34902;SDS011;21114;44.840;0.214;2023-12-29T03:39:59;10.52;;;9.50;;
34902;SDS011;21114;44.840;0.214;2023-12-29T03:42:26;11.63;;;10.40;;
34902;SDS011;21114;44.840;0.214;2023-12-29T03:44:52;11.82;;;10.65;;
34902;SDS011;21114;44.840;0.214;2023-12-29T03:47:18;10.68;;;9.38;;
34902;SDS011;21114;44.840;0.214;2023-12-29T03:49:44;12.30;;;10.77;;
34902;SDS011;21114;44.840;0.214;2023-12-29T03:52:10;11.70;;;10.55;;
34902;SDS011;21114;44.840;0.214;2023-12-29T03:54:36;12.77;;;11.25;;
34902;SDS011;21114;44.840;0.214;2023-12-29T03:57:02;12.98;;;11.50;;
34902;SDS011;21114;44.840;0.214;2023-12-29T03:59:28;13.73;;;10.32;;
34902;SDS011;21114;44.840;0.214;2023-12-29T04:01:54;10.98;;;9.63;;
34902;SDS011;21114;44.840;0.214;2023-12-29T04:04:20;12.98;;;11.27;;
34902;SDS011;21114;44.840;0.214;2023-12-29T04:06:47;15.52;;;12.00;;
34902;SDS011;21114;44.840;0.214;2023-12-29T04:09:13;14.27;;;10.65;;
34902;SDS011;21114;44.840;0.214;2023-12-29T04:11:39;11.38;;;9.70;;
34902;SDS011;21114;44.840;0.214;2023-12-29T04:14:05;15.43;;;9.18;;
34902;SDS011;21114;44.840;0.214;2023-12-29T04:16:33;8.95;;;8.10;;
34902;SDS011;21114;44.840;0.214;2023-12-29T04:18:59;11.68;;;9.93;;
34902;SDS011;21114;44.840;0.214;2023-12-29T04:21:25;10.23;;;8.38;;
34902;SDS011;21114;44.840;0.214;2023-12-29T04:23:51;11.10;;;9.32;;
34902;SDS011;21114;44.840;0.214;2023-12-29T04:26:17;11.60;;;9.13;;
34902;SDS011;21114;44.840;0.214;2023-12-29T04:28:43;9.93;;;8.93;;
34902;SDS011;21114;44.840;0.214;2023-12-29T04:31:09;9.50;;;8.60;;
34902;SDS011;21114;44.840;0.214;2023-12-29T04:33:35;10.07;;;9.02;;
34902;SDS011;21114;44.840;0.214;2023-12-29T04:36:01;9.75;;;7.78;;
34902;SDS011;21114;44.840;0.214;2023-12-29T04:38:27;11.15;;;8.25;;
34902;SDS011;21114;44.840;0.214;2023-12-29T04:40:54;12.45;;;8.80;;
34902;SDS011;21114;44.840;0.214;2023-12-29T04:43:20;9.07;;;7.80;;
34902;SDS011;21114;44.840;0.214;2023-12-29T04:45:46;10.00;;;8.82;;
34902;SDS011;21114;44.840;0.214;2023-12-29T04:48:12;9.45;;;8.52;;
34902;SDS011;21114;44.840;0.214;2023-12-29T04:50:38;11.48;;;9.15;;
34902;SDS011;21114;44.840;0.214;2023-12-29T04:53:04;10.35;;;9.27;;
34902;SDS011;21114;44.840;0.214;2023-12-29T04:55:30;10.63;;;9.45;;
34902;SDS011;21114;44.840;0.214;2023-12-29T04:57:56;12.48;;;8.73;;
34902;SDS011;21114;44.840;0.214;2023-12-29T05:00:22;9.25;;;8.23;;
34902;SDS011;21114;44.840;0.214;2023-12-29T05:02:48;11.65;;;9.10;;
34902;SDS011;21114;44.840;0.214;2023-12-29T05:05:14;11.13;;;9.13;;
34902;SDS011;21114;44.840;0.214;2023-12-29T05:07:40;10.05;;;8.55;;
34902;SDS011;21114;44.840;0.214;2023-12-29T05:10:06;9.90;;;8.88;;
34902;SDS011;21114;44.840;0.214;2023-12-29T05:12:33;10.43;;;9.32;;
34902;SDS011;21114;44.840;0.214;2023-12-29T05:14:59;11.82;;;10.02;;
34902;SDS011;21114;44.840;0.214;2023-12-29T05:17:25;14.68;;;9.60;;
34902;SDS011;21114;44.840;0.214;2023-12-29T05:19:51;15.27;;;11.60;;
34902;SDS011;21114;44.840;0.214;2023-12-29T05:22:17;11.57;;;10.38;;
34902;SDS011;21114;44.840;0.214;2023-12-29T05:24:43;10.27;;;8.50;;
34902;SDS011;21114;44.840;0.214;2023-12-29T05:27:10;11.40;;;10.13;;
34902;SDS011;21114;44.840;0.214;2023-12-29T05:29:36;12.32;;;10.45;;
34902;SDS011;21114;44.840;0.214;2023-12-29T05:32:03;12.00;;;10.50;;
34902;SDS011;21114;44.840;0.214;2023-12-29T05:35:17;13.13;;;11.23;;
34902;SDS011;21114;44.840;0.214;2023-12-29T05:37:43;13.45;;;11.32;;
34902;SDS011;21114;44.840;0.214;2023-12-29T05:40:09;15.38;;;10.73;;
34902;SDS011;21114;44.840;0.214;2023-12-29T05:42:35;11.75;;;10.30;;
34902;SDS011;21114;44.840;0.214;2023-12-29T05:45:02;13.80;;;10.57;;
34902;SDS011;21114;44.840;0.214;2023-12-29T05:47:28;12.38;;;10.45;;
34902;SDS011;21114;44.840;0.214;2023-12-29T05:49:54;11.73;;;10.27;;
34902;SDS011;21114;44.840;0.214;2023-12-29T05:52:20;13.95;;;11.80;;
34902;SDS011;21114;44.840;0.214;2023-12-29T05:55:35;12.45;;;10.30;;
34902;SDS011;21114;44.840;0.214;2023-12-29T05:58:01;12.60;;;11.30;;
34902;SDS011;21114;44.840;0.214;2023-12-29T06:00:27;13.32;;;11.85;;
34902;SDS011;21114;44.840;0.214;2023-12-29T06:02:53;14.90;;;11.88;;
34902;SDS011;21114;44.840;0.214;2023-12-29T06:05:19;16.27;;;10.73;;
34902;SDS011;21114;44.840;0.214;2023-12-29T06:08:34;15.48;;;13.45;;
34902;SDS011;21114;44.840;0.214;2023-12-29T06:11:00;15.32;;;11.40;;
34902;SDS011;21114;44.840;0.214;2023-12-29T06:13:26;18.10;;;12.75;;
34902;SDS011;21114;44.840;0.214;2023-12-29T06:15:52;18.00;;;14.43;;
34902;SDS011;21114;44.840;0.214;2023-12-29T06:18:18;15.63;;;12.93;;
34902;SDS011;21114;44.840;0.214;2023-12-29T06:20:44;18.27;;;14.57;;
34902;SDS011;21114;44.840;0.214;2023-12-29T06:23:10;14.82;;;13.18;;
34902;SDS011;21114;44.840;0.214;2023-12-29T06:25:36;14.65;;;11.82;;
34902;SDS011;21114;44.840;0.214;2023-12-29T06:28:04;16.27;;;11.30;;
34902;SDS011;21114;44.840;0.214;2023-12-29T06:30:31;14.13;;;11.40;;
34902;SDS011;21114;44.840;0.214;2023-12-29T06:32:57;11.48;;;10.27;;
34902;SDS011;21114;44.840;0.214;2023-12-29T06:35:23;11.98;;;10.63;;
34902;SDS011;21114;44.840;0.214;2023-12-29T06:37:49;12.38;;;11.18;;
34902;SDS011;21114;44.840;0.214;2023-12-29T06:40:16;11.45;;;10.25;;
34902;SDS011;21114;44.840;0.214;2023-12-29T06:43:31;12.30;;;9.82;;
34902;SDS011;21114;44.840;0.214;2023-12-29T06:45:57;12.77;;;11.05;;
34902;SDS011;21114;44.840;0.214;2023-12-29T06:48:23;13.02;;;10.25;;
34902;SDS011;21114;44.840;0.214;2023-12-29T06:50:49;15.02;;;9.43;;
34902;SDS011;21114;44.840;0.214;2023-12-29T06:53:15;13.50;;;12.00;;
34902;SDS011;21114;44.840;0.214;2023-12-29T06:55:41;11.65;;;10.15;;
34902;SDS011;21114;44.840;0.214;2023-12-29T06:58:07;11.75;;;9.90;;
34902;SDS011;21114;44.840;0.214;2023-12-29T07:00:33;12.02;;;9.88;;
34902;SDS011;21114;44.840;0.214;2023-12-29T07:03:02;11.57;;;9.80;;
34902;SDS011;21114;44.840;0.214;2023-12-29T07:06:17;11.52;;;10.38;;
34902;SDS011;21114;44.840;0.214;2023-12-29T07:08:43;12.13;;;10.95;;
34902;SDS011;21114;44.840;0.214;2023-12-29T07:11:09;11.80;;;9.57;;
34902;SDS011;21114;44.840;0.214;2023-12-29T07:13:36;11.25;;;10.15;;
34902;SDS011;21114;44.840;0.214;2023-12-29T07:16:02;10.85;;;9.52;;
34902;SDS011;21114;44.840;0.214;2023-12-29T07:18:28;13.00;;;10.93;;
34902;SDS011;21114;44.840;0.214;2023-12-29T07:20:54;13.30;;;10.57;;
34902;SDS011;21114;44.840;0.214;2023-12-29T07:23:21;13.40;;;11.38;;
34902;SDS011;21114;44.840;0.214;2023-12-29T07:25:47;12.07;;;10.77;;
34902;SDS011;21114;44.840;0.214;2023-12-29T07:29:02;11.65;;;10.45;;
34902;SDS011;21114;44.840;0.214;2023-12-29T07:31:28;14.70;;;11.20;;
34902;SDS011;21114;44.840;0.214;2023-12-29T07:33:54;13.20;;;10.45;;
34902;SDS011;21114;44.840;0.214;2023-12-29T07:37:09;13.52;;;11.07;;
34902;SDS011;21114;44.840;0.214;2023-12-29T07:39:36;12.48;;;9.98;;
34902;SDS011;21114;44.840;0.214;2023-12-29T07:42:02;14.93;;;11.18;;
34902;SDS011;21114;44.840;0.214;2023-12-29T07:44:28;12.13;;;10.85;;
34902;SDS011;21114;44.840;0.214;2023-12-29T07:46:56;14.07;;;11.85;;
34902;SDS011;21114;44.840;0.214;2023-12-29T07:50:11;16.20;;;11.02;;
34902;SDS011;21114;44.840;0.214;2023-12-29T07:52:37;12.23;;;11.02;;
34902;SDS011;21114;44.840;0.214;2023-12-29T07:55:03;14.50;;;11.38;;
34902;SDS011;21114;44.840;0.214;2023-12-29T07:57:53;13.13;;;10.98;;
34902;SDS011;21114;44.840;0.214;2023-12-29T08:00:19;13.43;;;11.93;;
34902;SDS011;21114;44.840;0.214;2023-12-29T08:02:47;13.15;;;11.10;;
34902;SDS011;21114;44.840;0.214;2023-12-29T08:05:13;12.80;;;11.50;;
34902;SDS011;21114;44.840;0.214;2023-12-29T08:07:40;15.30;;;11.25;;
34902;SDS011;21114;44.840;0.214;2023-12-29T08:10:07;12.80;;;10.90;;
34902;SDS011;21114;44.840;0.214;2023-12-29T08:12:33;13.57;;;10.88;;
34902;SDS011;21114;44.840;0.214;2023-12-29T08:15:00;11.80;;;10.60;;
34902;SDS011;21114;44.840;0.214;2023-12-29T08:17:27;12.35;;;11.10;;
34902;SDS011;21114;44.840;0.214;2023-12-29T08:19:53;14.25;;;12.88;;
34902;SDS011;21114;44.840;0.214;2023-12-29T08:22:20;13.73;;;12.30;;
34902;SDS011;21114;44.840;0.214;2023-12-29T08:24:46;13.93;;;12.45;;
34902;SDS011;21114;44.840;0.214;2023-12-29T08:27:12;18.67;;;16.67;;
34902;SDS011;21114;44.840;0.214;2023-12-29T08:29:39;17.92;;;14.82;;
34902;SDS011;21114;44.840;0.214;2023-12-29T08:32:05;16.88;;;12.82;;
34902;SDS011;21114;44.840;0.214;2023-12-29T08:35:19;16.52;;;12.93;;
34902;SDS011;21114;44.840;0.214;2023-12-29T08:37:45;18.15;;;15.05;;
34902;SDS011;21114;44.840;0.214;2023-12-29T08:40:11;14.60;;;12.38;;
34902;SDS011;21114;44.840;0.214;2023-12-29T08:42:38;14.35;;;12.02;;
34902;SDS011;21114;44.840;0.214;2023-12-29T08:45:04;17.58;;;10.68;;
34902;SDS011;21114;44.840;0.214;2023-12-29T08:48:19;15.50;;;11.38;;
34902;SDS011;21114;44.840;0.214;2023-12-29T08:50:45;13.20;;;11.73;;
34902;SDS011;21114;44.840;0.214;2023-12-29T08:53:11;12.95;;;11.43;;
34902;SDS011;21114;44.840;0.214;2023-12-29T08:55:37;15.38;;;12.38;;
34902;SDS011;21114;44.840;0.214;2023-12-29T08:58:03;13.27;;;11.05;;
34902;SDS011;21114;44.840;0.214;2023-12-29T09:00:30;12.18;;;10.88;;
34902;SDS011;21114;44.840;0.214;2023-12-29T09:02:56;14.45;;;11.50;;
34902;SDS011;21114;44.840;0.214;2023-12-29T09:05:22;15.02;;;11.80;;
34902;SDS011;21114;44.840;0.214;2023-12-29T09:07:48;16.42;;;13.23;;
34902;SDS011;21114;44.840;0.214;2023-12-29T09:11:03;14.48;;;12.98;;
34902;SDS011;21114;44.840;0.214;2023-12-29T09:14:18;13.25;;;11.85;;
34902;SDS011;21114;44.840;0.214;2023-12-29T09:17:32;13.93;;;12.52;;
34902;SDS011;21114;44.840;0.214;2023-12-29T09:19:59;14.82;;;12.75;;
34902;SDS011;21114;44.840;0.214;2023-12-29T09:23:13;13.60;;;12.27;;
34902;SDS011;21114;44.840;0.214;2023-12-29T09:25:40;14.13;;;12.65;;
34902;SDS011;21114;44.840;0.214;2023-12-29T09:28:06;13.80;;;12.30;;
34902;SDS011;21114;44.840;0.214;2023-12-29T09:30:32;13.77;;;12.23;;
34902;SDS011;21114;44.840;0.214;2023-12-29T09:32:58;13.65;;;12.32;;
34902;SDS011;21114;44.840;0.214;2023-12-29T09:35:24;12.80;;;11.63;;
34902;SDS011;21114;44.840;0.214;2023-12-29T09:37:51;13.82;;;11.80;;
34902;SDS011;21114;44.840;0.214;2023-12-29T09:40:17;12.48;;;10.88;;
34902;SDS011;21114;44.840;0.214;2023-12-29T09:42:43;17.02;;;11.60;;
34902;SDS011;21114;44.840;0.214;2023-12-29T09:45:58;12.68;;;11.35;;
34902;SDS011;21114;44.840;0.214;2023-12-29T09:48:26;13.35;;;10.30;;
34902;SDS011;21114;44.840;0.214;2023-12-29T09:51:40;11.85;;;10.63;;
34902;SDS011;21114;44.840;0.214;2023-12-29T09:54:58;12.65;;;11.07;;
34902;SDS011;21114;44.840;0.214;2023-12-29T09:57:24;13.05;;;10.77;;
34902;SDS011;21114;44.840;0.214;2023-12-29T10:00:39;12.77;;;11.05;;
34902;SDS011;21114;44.840;0.214;2023-12-29T10:03:05;11.30;;;10.10;;
34902;SDS011;21114;44.840;0.214;2023-12-29T10:05:48;16.50;;;12.43;;
34902;SDS011;21114;44.840;0.214;2023-12-29T10:08:54;17.05;;;11.25;;
34902;SDS011;21114;44.840;0.214;2023-12-29T10:12:10;12.45;;;10.40;;
34902;SDS011;21114;44.840;0.214;2023-12-29T10:15:37;12.93;;;11.43;;
34902;SDS011;21114;44.840;0.214;2023-12-29T10:19:32;10.93;;;9.85;;
34902;SDS011;21114;44.840;0.214;2023-12-29T10:26:13;11.77;;;10.20;;
34902;SDS011;21114;44.840;0.214;2023-12-29T10:28:55;10.88;;;9.77;;
34902;SDS011;21114;44.840;0.214;2023-12-29T10:32:10;10.27;;;9.13;;
34902;SDS011;21114;44.840;0.214;2023-12-29T10:34:36;15.43;;;10.98;;
34902;SDS011;21114;44.840;0.214;2023-12-29T10:37:02;14.68;;;11.35;;
34902;SDS011;21114;44.840;0.214;2023-12-29T10:39:34;9.85;;;8.88;;
34902;SDS011;21114;44.840;0.214;2023-12-29T10:42:54;10.43;;;9.02;;
34902;SDS011;21114;44.840;0.214;2023-12-29T10:46:10;9.57;;;8.57;;
34902;SDS011;21114;44.840;0.214;2023-12-29T10:49:24;10.60;;;9.05;;
34902;SDS011;21114;44.840;0.214;2023-12-29T10:52:38;9.10;;;7.32;;
34902;SDS011;21114;44.840;0.214;2023-12-29T10:55:07;8.85;;;7.45;;
34902;SDS011;21114;44.840;0.214;2023-12-29T10:58:28;8.75;;;7.85;;
34902;SDS011;21114;44.840;0.214;2023-12-29T11:01:28;7.88;;;7.07;;
34902;SDS011;21114;44.840;0.214;2023-12-29T11:04:43;9.60;;;8.75;;
34902;SDS011;21114;44.840;0.214;2023-12-29T11:07:43;13.05;;;9.75;;
34902;SDS011;21114;44.840;0.214;2023-12-29T11:10:09;13.20;;;8.93;;
34902;SDS011;21114;44.840;0.214;2023-12-29T11:12:36;11.65;;;7.03;;
34902;SDS011;21114;44.840;0.214;2023-12-29T11:15:51;8.32;;;7.53;;
34902;SDS011;21114;44.840;0.214;2023-12-29T11:19:06;10.57;;;7.47;;
34902;SDS011;21114;44.840;0.214;2023-12-29T11:22:21;8.40;;;6.57;;
34902;SDS011;21114;44.840;0.214;2023-12-29T11:25:38;7.53;;;6.40;;
34902;SDS011;21114;44.840;0.214;2023-12-29T11:28:53;11.70;;;8.70;;
34902;SDS011;21114;44.840;0.214;2023-12-29T11:32:11;8.52;;;7.72;;
34902;SDS011;21114;44.840;0.214;2023-12-29T11:35:02;7.65;;;6.63;;
34902;SDS011;21114;44.840;0.214;2023-12-29T11:41:49;9.48;;;8.02;;
34902;SDS011;21114;44.840;0.214;2023-12-29T11:48:53;7.60;;;6.13;;
34902;SDS011;21114;44.840;0.214;2023-12-29T11:52:07;10.10;;;7.55;;
34902;SDS011;21114;44.840;0.214;2023-12-29T11:54:33;9.38;;;7.22;;
34902;SDS011;21114;44.840;0.214;2023-12-29T11:56:59;11.68;;;6.93;;
34902;SDS011;21114;44.840;0.214;2023-12-29T11:59:26;9.73;;;7.45;;
34902;SDS011;21114;44.840;0.214;2023-12-29T12:02:41;9.63;;;7.78;;
34902;SDS011;21114;44.840;0.214;2023-12-29T12:05:10;9.23;;;7.68;;
34902;SDS011;21114;44.840;0.214;2023-12-29T12:08:37;7.85;;;7.05;;
34902;SDS011;21114;44.840;0.214;2023-12-29T12:11:52;8.23;;;7.03;;
34902;SDS011;21114;44.840;0.214;2023-12-29T12:17:59;11.23;;;7.25;;
34902;SDS011;21114;44.840;0.214;2023-12-29T12:21:14;10.05;;;6.85;;
34902;SDS011;21114;44.840;0.214;2023-12-29T12:24:08;7.53;;;6.82;;
34902;SDS011;21114;44.840;0.214;2023-12-29T12:27:23;9.85;;;7.57;;
34902;SDS011;21114;44.840;0.214;2023-12-29T12:30:38;7.32;;;6.60;;
34902;SDS011;21114;44.840;0.214;2023-12-29T12:33:04;9.77;;;7.03;;
34902;SDS011;21114;44.840;0.214;2023-12-29T12:35:30;7.28;;;6.50;;
34902;SDS011;21114;44.840;0.214;2023-12-29T12:38:54;9.48;;;7.63;;
34902;SDS011;21114;44.840;0.214;2023-12-29T12:42:09;9.25;;;7.78;;
34902;SDS011;21114;44.840;0.214;2023-12-29T12:45:23;8.65;;;6.55;;
34902;SDS011;21114;44.840;0.214;2023-12-29T12:48:43;9.20;;;6.95;;
34902;SDS011;21114;44.840;0.214;2023-12-29T12:51:58;8.52;;;7.32;;
34902;SDS011;21114;44.840;0.214;2023-12-29T12:55:13;8.82;;;7.55;;
34902;SDS011;21114;44.840;0.214;2023-12-29T12:58:28;11.73;;;7.63;;
34902;SDS011;21114;44.840;0.214;2023-12-29T13:01:44;11.68;;;8.50;;
34902;SDS011;21114;44.840;0.214;2023-12-29T13:04:10;9.15;;;8.07;;
34902;SDS011;21114;44.840;0.214;2023-12-29T13:07:25;7.63;;;6.68;;
34902;SDS011;21114;44.840;0.214;2023-12-29T13:10:43;17.17;;;8.43;;
34902;SDS011;21114;44.840;0.214;2023-12-29T13:13:57;7.25;;;6.18;;
34902;SDS011;21114;44.840;0.214;2023-12-29T13:17:12;7.40;;;5.68;;
34902;SDS011;21114;44.840;0.214;2023-12-29T13:20:00;10.88;;;6.47;;
34902;SDS011;21114;44.840;0.214;2023-12-29T13:23:15;10.15;;;7.07;;
34902;SDS011;21114;44.840;0.214;2023-12-29T13:26:30;12.80;;;10.15;;
34902;SDS011;21114;44.840;0.214;2023-12-29T13:29:44;8.75;;;6.65;;
34902;SDS011;21114;44.840;0.214;2023-12-29T13:32:56;15.82;;;8.95;;
34902;SDS011;21114;44.840;0.214;2023-12-29T13:36:16;7.28;;;5.57;;
34902;SDS011;21114;44.840;0.214;2023-12-29T13:39:40;6.90;;;5.90;;
34902;SDS011;21114;44.840;0.214;2023-12-29T13:42:57;7.82;;;6.05;;
34902;SDS011;21114;44.840;0.214;2023-12-29T13:46:13;8.98;;;6.70;;
34902;SDS011;21114;44.840;0.214;2023-12-29T13:49:02;17.42;;;10.30;;
34902;SDS011;21114;44.840;0.214;2023-12-29T13:51:42;13.30;;;9.98;;
34902;SDS011;21114;44.840;0.214;2023-12-29T13:54:08;11.82;;;8.15;;
34902;SDS011;21114;44.840;0.214;2023-12-29T13:57:32;11.25;;;8.10;;
34902;SDS011;21114;44.840;0.214;2023-12-29T14:00:53;7.60;;;6.70;;
34902;SDS011;21114;44.840;0.214;2023-12-29T14:04:00;13.52;;;7.97;;
34902;SDS011;21114;44.840;0.214;2023-12-29T14:07:04;10.30;;;6.80;;
34902;SDS011;21114;44.840;0.214;2023-12-29T14:10:21;10.52;;;6.28;;
34902;SDS011;21114;44.840;0.214;2023-12-29T14:13:08;7.85;;;5.30;;
34902;SDS011;21114;44.840;0.214;2023-12-29T14:16:22;5.60;;;5.05;;
34902;SDS011;21114;44.840;0.214;2023-12-29T14:18:52;5.63;;;4.90;;
34902;SDS011;21114;44.840;0.214;2023-12-29T14:21:57;6.80;;;4.63;;
34902;SDS011;21114;44.840;0.214;2023-12-29T14:24:23;10.05;;;6.43;;
34902;SDS011;21114;44.840;0.214;2023-12-29T14:30:17;5.65;;;4.82;;
34902;SDS011;21114;44.840;0.214;2023-12-29T14:33:31;7.63;;;6.38;;
34902;SDS011;21114;44.840;0.214;2023-12-29T14:35:57;7.35;;;4.72;;
34902;SDS011;21114;44.840;0.214;2023-12-29T14:39:12;9.68;;;5.07;;
34902;SDS011;21114;44.840;0.214;2023-12-29T14:41:38;8.00;;;5.10;;
34902;SDS011;21114;44.840;0.214;2023-12-29T14:44:53;9.85;;;8.82;;
34902;SDS011;21114;44.840;0.214;2023-12-29T14:47:41;8.40;;;6.15;;
34902;SDS011;21114;44.840;0.214;2023-12-29T14:51:00;8.35;;;5.97;;
34902;SDS011;21114;44.840;0.214;2023-12-29T14:53:26;7.93;;;7.13;;
34902;SDS011;21114;44.840;0.214;2023-12-29T14:56:40;9.35;;;7.15;;
34902;SDS011;21114;44.840;0.214;2023-12-29T14:59:55;8.00;;;5.88;;
34902;SDS011;21114;44.840;0.214;2023-12-29T15:02:21;7.78;;;6.53;;
34902;SDS011;21114;44.840;0.214;2023-12-29T15:04:47;10.95;;;6.50;;
34902;SDS011;21114;44.840;0.214;2023-12-29T15:07:16;10.55;;;6.70;;
34902;SDS011;21114;44.840;0.214;2023-12-29T15:10:30;6.75;;;5.60;;
34902;SDS011;21114;44.840;0.214;2023-12-29T15:13:45;8.02;;;5.78;;
34902;SDS011;21114;44.840;0.214;2023-12-29T15:16:59;8.18;;;6.32;;
34902;SDS011;21114;44.840;0.214;2023-12-29T15:19:25;7.65;;;5.45;;
34902;SDS011;21114;44.840;0.214;2023-12-29T15:21:51;8.40;;;5.95;;
34902;SDS011;21114;44.840;0.214;2023-12-29T15:24:21;12.02;;;6.90;;
34902;SDS011;21114;44.840;0.214;2023-12-29T15:27:36;9.43;;;6.40;;
34902;SDS011;21114;44.840;0.214;2023-12-29T15:30:02;7.65;;;6.07;;
34902;SDS011;21114;44.840;0.214;2023-12-29T15:32:28;29.60;;;23.55;;
34902;SDS011;21114;44.840;0.214;2023-12-29T15:35:44;16.95;;;13.52;;
34902;SDS011;21114;44.840;0.214;2023-12-29T15:38:10;12.90;;;11.57;;
34902;SDS011;21114;44.840;0.214;2023-12-29T15:41:24;11.68;;;9.98;;
34902;SDS011;21114;44.840;0.214;2023-12-29T15:43:50;10.07;;;8.10;;
34902;SDS011;21114;44.840;0.214;2023-12-29T15:47:05;8.23;;;6.97;;
34902;SDS011;21114;44.840;0.214;2023-12-29T15:49:31;11.73;;;7.32;;
34902;SDS011;21114;44.840;0.214;2023-12-29T15:52:45;7.72;;;6.45;;
34902;SDS011;21114;44.840;0.214;2023-12-29T15:56:00;11.88;;;8.52;;
34902;SDS011;21114;44.840;0.214;2023-12-29T15:59:14;12.90;;;10.13;;
34902;SDS011;21114;44.840;0.214;2023-12-29T16:01:40;16.77;;;11.70;;
34902;SDS011;21114;44.840;0.214;2023-12-29T16:04:06;14.25;;;10.20;;
34902;SDS011;21114;44.840;0.214;2023-12-29T16:06:32;14.02;;;11.57;;
34902;SDS011;21114;44.840;0.214;2023-12-29T16:09:00;15.05;;;9.55;;
34902;SDS011;21114;44.840;0.214;2023-12-29T16:11:27;15.52;;;11.13;;
34902;SDS011;21114;44.840;0.214;2023-12-29T16:13:54;18.55;;;13.25;;
34902;SDS011;21114;44.840;0.214;2023-12-29T16:16:23;17.73;;;14.52;;
34902;SDS011;21114;44.840;0.214;2023-12-29T16:18:52;23.80;;;17.77;;
34902;SDS011;21114;44.840;0.214;2023-12-29T16:22:07;20.27;;;15.88;;